createdAt,value
2017-11-28T00:02:02.712Z,4.6
2017-11-28T00:07:03.401Z,4.6
2017-11-28T00:12:02.834Z,4.7
2017-11-28T00:17:03.144Z,4.7
2017-11-28T00:22:02.842Z,4.7
2017-11-28T00:27:03.129Z,4.7
2017-11-28T00:32:03.142Z,4.8
2017-11-28T00:37:03.324Z,4.8
2017-11-28T00:42:03.515Z,4.7
2017-11-28T00:47:03.648Z,4.8
2017-11-28T00:52:03.318Z,4.8
2017-11-28T00:57:03.424Z,4.8
2017-11-28T01:02:02.709Z,4.8
2017-11-28T01:07:02.887Z,4.8
2017-11-28T01:12:03.152Z,4.7
2017-11-28T01:17:03.409Z,4.7
2017-11-28T01:22:03.595Z,4.7
2017-11-28T01:27:03.606Z,4.7
2017-11-28T01:32:03.016Z,4.7
2017-11-28T01:37:02.977Z,4.7
2017-11-28T01:42:03.107Z,4.7
2017-11-28T01:47:03.278Z,4.8
2017-11-28T01:52:02.683Z,4.8
2017-11-28T01:57:03.029Z,4.8
2017-11-28T02:02:03.250Z,5.0
2017-11-28T02:07:02.886Z,4.9
2017-11-28T02:12:03.130Z,5.0
2017-11-28T02:17:03.232Z,5.1
2017-11-28T02:22:02.823Z,5.1
2017-11-28T02:27:03.079Z,5.2
2017-11-28T02:32:03.239Z,5.3
2017-11-28T02:37:03.132Z,5.3
2017-11-28T02:42:03.214Z,5.4
2017-11-28T02:47:03.449Z,5.3
2017-11-28T02:52:03.563Z,5.4
2017-11-28T02:57:03.663Z,5.4
2017-11-28T03:02:02.988Z,5.5
2017-11-28T03:07:03.343Z,5.5
2017-11-28T03:12:03.519Z,5.5
2017-11-28T03:17:02.924Z,5.5
2017-11-28T03:22:03.165Z,5.5
2017-11-28T03:27:03.253Z,5.5
2017-11-28T03:32:03.577Z,5.5
2017-11-28T03:37:02.948Z,5.5
2017-11-28T03:42:03.183Z,5.5
2017-11-28T03:47:03.458Z,5.5
2017-11-28T03:52:02.850Z,5.4
2017-11-28T03:57:03.125Z,5.4
2017-11-28T04:02:03.475Z,5.4
2017-11-28T04:07:02.969Z,5.4
2017-11-28T04:12:03.366Z,5.3
2017-11-28T04:17:03.712Z,5.3
2017-11-28T04:22:03.117Z,5.3
2017-11-28T04:27:03.400Z,5.2
2017-11-28T04:32:03.656Z,5.2
2017-11-28T04:37:02.971Z,5.1
2017-11-28T04:42:03.268Z,5.1
2017-11-28T04:47:03.595Z,5.1
2017-11-28T04:52:02.945Z,5.0
2017-11-28T04:57:03.211Z,5.1
2017-11-28T05:02:03.514Z,5.0
2017-11-28T05:07:03.082Z,5.0
2017-11-28T05:12:03.405Z,5.1
2017-11-28T05:17:03.718Z,5.1
2017-11-28T05:22:03.087Z,5.0
2017-11-28T05:27:03.353Z,5.0
2017-11-28T05:32:03.665Z,5.0
2017-11-28T05:37:03.066Z,5.0
2017-11-28T05:42:03.195Z,5.1
2017-11-28T05:47:03.431Z,5.1
2017-11-28T05:52:02.816Z,5.1
2017-11-28T05:57:03.065Z,5.1
2017-11-28T06:02:03.373Z,5.1
2017-11-28T06:07:02.885Z,5.1
2017-11-28T06:12:03.252Z,5.1
2017-11-28T06:17:05.777Z,5.1
2017-11-28T06:22:03.031Z,5.1
2017-11-28T06:27:03.352Z,5.1
2017-11-28T06:32:14.181Z,5.1
2017-11-28T06:37:03.260Z,5.1
2017-11-28T06:42:02.719Z,5.1
2017-11-28T06:47:17.904Z,5.1
2017-11-28T06:52:03.309Z,5.1
2017-11-28T06:57:03.145Z,5.1
2017-11-28T07:02:17.744Z,5.2
2017-11-28T07:07:03.364Z,5.1
2017-11-28T07:12:03.104Z,5.1
2017-11-28T07:17:18.401Z,5.1
2017-11-28T07:22:03.112Z,5.2
2017-11-28T07:27:03.533Z,5.2
2017-11-28T07:32:13.451Z,5.2
2017-11-28T07:37:03.422Z,5.2
2017-11-28T07:42:02.847Z,5.2
2017-11-28T07:47:09.148Z,5.3
2017-11-28T07:52:02.650Z,5.3
2017-11-28T07:57:03.125Z,5.3
2017-11-28T08:02:14.101Z,5.3
2017-11-28T08:07:02.872Z,5.3
2017-11-28T08:12:02.961Z,5.4
2017-11-28T08:17:13.947Z,5.4
2017-11-28T08:22:02.947Z,5.4
2017-11-28T08:27:03.399Z,5.4
2017-11-28T08:32:22.421Z,5.3
2017-11-28T08:37:03.581Z,5.4
2017-11-28T08:42:03.091Z,5.4
2017-11-28T08:47:13.934Z,5.5
2017-11-28T08:52:02.874Z,5.6
2017-11-28T08:57:03.267Z,5.7
2017-11-28T09:02:14.012Z,5.7
2017-11-28T09:07:03.233Z,5.7
2017-11-28T09:12:02.801Z,5.8
2017-11-28T09:17:13.807Z,5.8
2017-11-28T09:22:02.754Z,5.8
2017-11-28T09:27:03.230Z,5.9
2017-11-28T09:32:13.917Z,5.9
2017-11-28T09:37:02.945Z,5.9
2017-11-28T09:42:03.431Z,5.9
2017-11-28T09:47:13.237Z,5.9
2017-11-28T09:52:03.239Z,5.9
2017-11-28T09:57:03.659Z,5.9
2017-11-28T10:02:13.599Z,5.9
2017-11-28T10:07:03.449Z,5.8
2017-11-28T10:12:03.098Z,5.8
2017-11-28T10:17:14.049Z,5.8
2017-11-28T10:22:03.019Z,5.7
2017-11-28T10:27:02.825Z,5.7
2017-11-28T10:32:13.563Z,5.8
2017-11-28T10:37:03.562Z,5.9
2017-11-28T10:42:03.006Z,6.1
2017-11-28T10:47:13.740Z,6.1
2017-11-28T10:52:02.819Z,6.2
2017-11-28T10:57:03.232Z,6.3
2017-11-28T11:02:13.936Z,6.1
